Time;durP1;ratioP1;P1;durP2;ratioP2;P2;SDS_P1;SDS_P2;PMS_P1;PMS_P2;Temp;Humidity;BMP_temperature;BMP_pressure;BME280_temperature;BME280_humidity;BME280_pressure;Samples;Min_cycle;Max_cycle;Signal;HPM_P1;HPM_P2
2023/05/11 00:01:11;;;;;;;;;;;;;;;;;;5105882;28;19911;-45
2023/05/11 05:07:50;;;;;;;;;;;;;;;;;;5103501;27;20532;-46
2023/05/11 05:10:16;;;;;;;;;;;;;;;;;;5110425;28;19923;-45
2023/05/11 05:12:42;;;;;;;;;;;;;;;;;;5109677;28;19907;-45
2023/05/11 05:15:08;;;;;;;;;;;;;;;;;;5109793;28;19954;-44
2023/05/11 05:17:35;;;;;;;;;;;;;;;;;;5109561;28;19963;-46
2023/05/11 05:20:00;;;;;;;;;;;;;;;;;;5110116;28;20498;-43
2023/05/11 05:22:27;;;;;;;;;;;;;;;;;;5109602;28;20006;-44
2023/05/11 05:24:52;;;;;;;;;;;;;;;;;;5109835;28;20489;-47
2023/05/11 05:27:18;;;;;;;;;;;;;;;;;;5109961;28;19908;-44
2023/05/11 05:29:44;;;;;;;;;;;;;;;;;;5109676;28;19920;-45
2023/05/11 05:32:10;;;;;;;;;;;;;;;;;;5096698;28;20551;-47
2023/05/11 05:34:36;;;;;;;;;;;;;;;;;;5089164;28;19908;-47
2023/05/11 05:37:02;;;;;;;;;;;;;;;;;;5088976;28;19920;-47
2023/05/11 05:39:29;;;;;;;;;;;;;;;;;;5089451;28;20339;-47
2023/05/11 05:41:55;;;;;;;;;;;;;;;;;;5088979;28;20016;-46
2023/05/11 05:44:21;;;;;;;;;;;;;;;;;;5088824;28;20002;-47
2023/05/11 05:46:47;;;;;;;;;;;;;;;;;;5089670;28;19912;-47
2023/05/11 05:49:13;;;;;;;;;;;;;;;;;;5101433;28;19912;-45
2023/05/11 05:51:39;;;;;;;;;;;;;;;;;;5108975;28;19911;-45
2023/05/11 05:54:05;;;;;;;;;;;;;;;;;;5109230;28;19923;-45
2023/05/11 05:56:33;;;;;;;;;;;;;;;;;;5106769;28;20320;-44
2023/05/11 05:58:59;;;;;;;;;;;;;;;;;;5108871;28;19991;-47
2023/05/11 06:01:26;;;;;;;;;;;;;;;;;;5109083;28;19918;-45
2023/05/11 06:03:53;;;;;;;;;;;;;;;;;;5109000;27;19973;-46
2023/05/11 06:06:19;;;;;;;;;;;;;;;;;;5109261;28;19995;-45
2023/05/11 06:08:46;;;;;;;;;;;;;;;;;;5106166;28;20325;-45
2023/05/11 06:11:12;;;;;;;;;;;;;;;;;;5105766;28;19915;-46
2023/05/11 06:13:38;;;;;;;;;;;;;;;;;;5108576;28;19952;-44
2023/05/11 06:16:04;;;;;;;;;;;;;;;;;;5108181;28;20390;-45
2023/05/11 06:18:30;;;;;;;;;;;;;;;;;;5108701;28;19908;-45
2023/05/11 06:20:56;;;;;;;;;;;;;;;;;;5108882;28;20282;-44
2023/05/11 06:23:21;;;;;;;;;;;;;;;;;;5108694;28;20036;-46
2023/05/11 06:25:47;;;;;;;;;;;;;;;;;;5108797;28;20002;-45
2023/05/11 06:28:13;;;;;;;;;;;;;;;;;;5108151;28;19912;-45
2023/05/11 06:30:39;;;;;;;;;;;;;;;;;;5108578;28;20318;-47
2023/05/11 06:33:05;;;;;;;;;;;;;;;;;;5108512;28;19912;-44
2023/05/11 06:35:31;;;;;;;;;;;;;;;;;;5107093;28;19918;-48
2023/05/11 06:37:58;;;;;;;;;;;;;;;;;;5109534;28;19923;-47
2023/05/11 06:40:24;;;;;;;;;;;;;;;;;;5109110;28;19915;-44
2023/05/11 06:42:51;;;;;;;;;;;;;;;;;;5108985;28;19912;-44
2023/05/11 06:45:17;;;;;;;;;;;;;;;;;;5109407;28;20359;-47
2023/05/11 06:47:43;;;;;;;;;;;;;;;;;;5108842;28;19914;-48
2023/05/11 06:50:10;;;;;;;;;;;;;;;;;;5108762;28;19907;-45
2023/05/11 06:52:36;;;;;;;;;;;;;;;;;;5108880;28;19919;-44
2023/05/11 06:55:03;;;;;;;;;;;;;;;;;;5108904;28;19908;-45
2023/05/11 06:57:29;;;;;;;;;;;;;;;;;;5108661;28;19973;-44
2023/05/11 06:59:55;;;;;;;;;;;;;;;;;;5108847;28;20370;-46
2023/05/11 07:02:21;;;;;;;;;;;;;;;;;;5108933;28;19924;-45
2023/05/11 07:04:46;;;;;;;;;;;;;;;;;;5108945;28;19907;-45
2023/05/11 07:07:12;;;;;;;;;;;;;;;;;;5109162;28;19914;-46
2023/05/11 07:09:38;;;;;;;;;;;;;;;;;;5109267;28;20002;-46
2023/05/11 07:12:04;;;;;;;;;;;;;;;;;;5108050;28;19958;-44
2023/05/11 07:14:30;;;;;;;;;;;;;;;;;;5105126;28;19923;-44
2023/05/11 07:16:56;;;;;;;;;;;;;;;;;;5098807;28;19920;-47
2023/05/11 07:19:22;;;;;;;;;;;;;;;;;;5108871;28;19916;-48
2023/05/11 07:21:48;;;;;;;;;;;;;;;;;;5109389;28;19915;-45
2023/05/11 07:24:14;;;;;;;;;;;;;;;;;;5109323;28;19931;-45
2023/05/11 07:26:40;;;;;;;;;;;;;;;;;;5109307;28;20633;-47
2023/05/11 07:29:06;;;;;;;;;;;;;;;;;;5108813;28;19923;-47
2023/05/11 07:31:33;;;;;;;;;;;;;;;;;;5106663;28;19958;-45
2023/05/11 07:33:59;;;;;;;;;;;;;;;;;;5097336;28;20072;-44
2023/05/11 07:36:25;;;;;;;;;;;;;;;;;;5103696;28;20429;-47
2023/05/11 07:38:51;;;;;;;;;;;;;;;;;;5105631;28;19923;-45
2023/05/11 07:41:18;;;;;;;;;;;;;;;;;;5097235;28;19919;-45
2023/05/11 07:43:43;;;;;;;;;;;;;;;;;;5108804;28;19908;-47
2023/05/11 07:46:09;;;;;;;;;;;;;;;;;;5092567;28;19912;-45
2023/05/11 07:48:36;;;;;;;;;;;;;;;;;;5090551;28;19953;-45
2023/05/11 07:51:02;;;;;;;;;;;;;;;;;;5107304;28;19923;-47
2023/05/11 07:53:27;;;;;;;;;;;;;;;;;;5107679;28;19916;-47
2023/05/11 07:55:53;;;;;;;;;;;;;;;;;;5091172;28;20404;-46
2023/05/11 07:58:20;;;;;;;;;;;;;;;;;;5106900;28;19951;-45
2023/05/11 08:00:46;;;;;;;;;;;;;;;;;;5094529;28;19923;-45
2023/05/11 08:03:13;;;;;;;;;;;;;;;;;;5108723;28;19907;-48
2023/05/11 08:05:39;;;;;;;;;;;;;;;;;;5108848;28;19930;-44
2023/05/11 08:08:05;;;;;;;;;;;;;;;;;;5108648;28;20418;-43
2023/05/11 08:10:31;;;;;;;;;;;;;;;;;;5096495;28;19943;-48
2023/05/11 08:12:57;;;;;;;;;;;;;;;;;;5087049;28;20011;-47
2023/05/11 08:15:23;;;;;;;;;;;;;;;;;;5087907;28;19953;-44
2023/05/11 08:17:49;;;;;;;;;;;;;;;;;;5068209;28;19923;-47
2023/05/11 08:20:15;;;;;;;;;;;;;;;;;;5068073;28;19936;-46
2023/05/11 08:22:41;;;;;;;;;;;;;;;;;;5079644;28;19916;-46
2023/05/11 08:25:07;;;;;;;;;;;;;;;;;;5086827;28;19942;-44
2023/05/11 08:27:33;;;;;;;;;;;;;;;;;;5089342;28;20012;-45
2023/05/11 08:29:59;;;;;;;;;;;;;;;;;;5091124;28;19919;-45
2023/05/11 08:32:25;;;;;;;;;;;;;;;;;;5091160;28;19969;-47
2023/05/11 08:34:52;;;;;;;;;;;;;;;;;;5085470;28;19917;-45
2023/05/11 08:37:17;;;;;;;;;;;;;;;;;;5087601;28;19923;-46
2023/05/11 08:39:43;;;;;;;;;;;;;;;;;;5091293;28;20302;-45
2023/05/11 08:42:09;;;;;;;;;;;;;;;;;;5091033;28;19931;-45
2023/05/11 08:44:36;;;;;;;;;;;;;;;;;;5091033;28;19912;-46
2023/05/11 08:47:04;;;;;;;;;;;;;;;;;;5091047;28;19919;-47
2023/05/11 08:49:31;;;;;;;;;;;;;;;;;;5091399;28;19947;-45
2023/05/11 08:51:57;;;;;;;;;;;;;;;;;;5091226;28;19997;-47
2023/05/11 08:54:23;;;;;;;;;;;;;;;;;;5090954;28;19965;-45
2023/05/11 08:56:50;;;;;;;;;;;;;;;;;;5090879;28;19912;-45
2023/05/11 08:59:16;;;;;;;;;;;;;;;;;;5091322;28;19938;-44
2023/05/11 09:01:42;;;;;;;;;;;;;;;;;;5090828;28;20462;-44
2023/05/11 09:04:08;;;;;;;;;;;;;;;;;;5083842;28;19912;-46
2023/05/11 09:06:34;;;;;;;;;;;;;;;;;;5075586;28;19935;-47
2023/05/11 09:09:00;;;;;;;;;;;;;;;;;;5084285;28;19990;-44
2023/05/11 09:11:26;;;;;;;;;;;;;;;;;;5100443;28;19948;-48
2023/05/11 09:13:52;;;;;;;;;;;;;;;;;;5098299;28;19916;-44
2023/05/11 09:16:18;;;;;;;;;;;;;;;;;;5111108;28;19934;-48
2023/05/11 09:18:44;;;;;;;;;;;;;;;;;;5111241;28;19912;-48
2023/05/11 09:21:10;;;;;;;;;;;;;;;;;;5099253;28;20187;-47
2023/05/11 09:23:36;;;;;;;;;;;;;;;;;;5104130;28;19915;-46
2023/05/11 09:26:02;;;;;;;;;;;;;;;;;;5107415;28;20022;-44
2023/05/11 09:28:28;;;;;;;;;;;;;;;;;;5105225;28;19915;-45
2023/05/11 09:30:53;;;;;;;;;;;;;;;;;;5110950;28;19976;-47
2023/05/11 09:33:20;;;;;;;;;;;;;;;;;;5111408;28;19912;-45
2023/05/11 09:35:46;;;;;;;;;;;;;;;;;;5111288;28;19912;-45
2023/05/11 09:38:12;;;;;;;;;;;;;;;;;;5110869;28;19942;-45
2023/05/11 09:40:38;;;;;;;;;;;;;;;;;;5110831;28;19956;-48
2023/05/11 09:43:04;;;;;;;;;;;;;;;;;;5110897;28;19911;-44
2023/05/11 09:45:30;;;;;;;;;;;;;;;;;;5110848;28;19942;-44
2023/05/11 09:47:56;;;;;;;;;;;;;;;;;;5110811;28;19912;-46
2023/05/11 09:50:22;;;;;;;;;;;;;;;;;;5110842;28;20020;-46
2023/05/11 09:52:48;;;;;;;;;;;;;;;;;;5110972;28;19935;-44
2023/05/11 09:55:14;;;;;;;;;;;;;;;;;;5110704;28;19908;-45
2023/05/11 09:57:40;;;;;;;;;;;;;;;;;;5110530;28;20184;-46
2023/05/11 10:00:05;;;;;;;;;;;;;;;;;;5110516;28;20019;-46
2023/05/11 10:02:32;;;;;;;;;;;;;;;;;;5110635;28;19908;-48
2023/05/11 10:04:58;;;;;;;;;;;;;;;;;;5110333;28;19912;-46
2023/05/11 10:07:24;;;;;;;;;;;;;;;;;;5110619;28;19908;-44
2023/05/11 10:09:50;;;;;;;;;;;;;;;;;;5110252;28;19931;-44
2023/05/11 10:12:16;;;;;;;;;;;;;;;;;;5091723;28;20378;-45
2023/05/11 10:14:42;;;;;;;;;;;;;;;;;;5088650;28;19920;-47
2023/05/11 10:17:08;;;;;;;;;;;;;;;;;;5088100;28;19912;-45
2023/05/11 10:19:34;;;;;;;;;;;;;;;;;;5088513;28;20002;-46
2023/05/11 10:22:00;;;;;;;;;;;;;;;;;;5088411;28;20290;-47
2023/05/11 10:24:25;;;;;;;;;;;;;;;;;;5088275;28;19919;-45
2023/05/11 10:26:52;;;;;;;;;;;;;;;;;;5088319;28;19961;-44
2023/05/11 10:29:18;;;;;;;;;;;;;;;;;;5088376;28;19915;-47
2023/05/11 10:31:45;;;;;;;;;;;;;;;;;;5088561;28;20309;-47
2023/05/11 10:34:11;;;;;;;;;;;;;;;;;;5088408;28;19912;-48
2023/05/11 10:36:37;;;;;;;;;;;;;;;;;;5086982;28;20349;-44
2023/05/11 10:39:04;;;;;;;;;;;;;;;;;;5088126;28;19919;-46
2023/05/11 10:41:31;;;;;;;;;;;;;;;;;;5088142;28;19914;-44
2023/05/11 10:43:56;;;;;;;;;;;;;;;;;;5088175;28;19954;-48
2023/05/11 10:46:22;;;;;;;;;;;;;;;;;;5088350;28;19927;-44
2023/05/11 10:48:48;;;;;;;;;;;;;;;;;;5087602;28;19912;-43
2023/05/11 10:51:14;;;;;;;;;;;;;;;;;;5088195;28;19912;-44
2023/05/11 10:53:40;;;;;;;;;;;;;;;;;;5086663;28;19912;-48
2023/05/11 10:56:06;;;;;;;;;;;;;;;;;;5087594;28;20008;-45
2023/05/11 10:58:32;;;;;;;;;;;;;;;;;;5087751;28;19916;-45
2023/05/11 11:00:58;;;;;;;;;;;;;;;;;;5087732;28;19927;-46
2023/05/11 11:03:24;;;;;;;;;;;;;;;;;;5088109;28;20337;-44
2023/05/11 11:05:50;;;;;;;;;;;;;;;;;;5087992;28;20302;-48
2023/05/11 11:08:16;;;;;;;;;;;;;;;;;;5087960;28;19908;-48
2023/05/11 11:10:45;;;;;;;;;;;;;;;;;;5087430;28;19916;-48
2023/05/11 11:13:11;;;;;;;;;;;;;;;;;;5087806;28;19912;-47
2023/05/11 11:15:38;;;;;;;;;;;;;;;;;;5087794;28;20438;-46
2023/05/11 11:18:04;;;;;;;;;;;;;;;;;;5087521;28;19912;-44
2023/05/11 11:20:31;;;;;;;;;;;;;;;;;;5087699;28;19908;-46
2023/05/11 11:22:57;;;;;;;;;;;;;;;;;;5087610;28;19908;-46
2023/05/11 11:25:22;;;;;;;;;;;;;;;;;;5087707;28;20534;-45
2023/05/11 11:27:48;;;;;;;;;;;;;;;;;;5087806;28;20319;-47
2023/05/11 11:30:16;;;;;;;;;;;;;;;;;;5087681;28;19943;-47
2023/05/11 11:32:42;;;;;;;;;;;;;;;;;;5087474;28;19959;-45
2023/05/11 11:35:09;;;;;;;;;;;;;;;;;;5087460;28;19951;-44
2023/05/11 11:37:35;;;;;;;;;;;;;;;;;;5087406;28;20026;-46
2023/05/11 11:40:02;;;;;;;;;;;;;;;;;;5087375;28;19909;-47
2023/05/11 11:42:28;;;;;;;;;;;;;;;;;;5087469;28;20391;-47
2023/05/11 11:44:54;;;;;;;;;;;;;;;;;;5108551;28;20010;-44
2023/05/11 11:47:20;;;;;;;;;;;;;;;;;;5111458;28;19920;-43
2023/05/11 11:49:47;;;;;;;;;;;;;;;;;;5126819;28;19994;-45
2023/05/11 11:52:13;;;;;;;;;;;;;;;;;;5126844;28;19915;-48
2023/05/11 11:54:39;;;;;;;;;;;;;;;;;;5125632;28;19912;-46
2023/05/11 11:57:05;;;;;;;;;;;;;;;;;;5129663;28;19918;-46
2023/05/11 11:59:31;;;;;;;;;;;;;;;;;;5129790;28;20024;-47
2023/05/11 12:01:58;;;;;;;;;;;;;;;;;;5130584;27;19908;-45
2023/05/11 12:04:23;;;;;;;;;;;;;;;;;;5132216;27;19918;-44
2023/05/11 12:06:49;;;;;;;;;;;;;;;;;;5113642;27;19908;-47
2023/05/11 12:09:15;;;;;;;;;;;;;;;;;;5131762;27;20158;-44
2023/05/11 12:11:41;;;;;;;;;;;;;;;;;;5113551;27;19990;-44
2023/05/11 12:14:07;;;;;;;;;;;;;;;;;;5132175;27;19907;-45
2023/05/11 12:16:33;;;;;;;;;;;;;;;;;;5131946;27;20330;-45
2023/05/11 12:18:59;;;;;;;;;;;;;;;;;;5131724;27;19946;-47
2023/05/11 12:21:26;;;;;;;;;;;;;;;;;;5131986;27;19960;-46
2023/05/11 12:23:53;;;;;;;;;;;;;;;;;;5131999;27;20006;-45
2023/05/11 12:26:20;;;;;;;;;;;;;;;;;;5132188;27;20028;-46
2023/05/11 12:28:49;;;;;;;;;;;;;;;;;;5131796;27;19912;-47
2023/05/11 12:31:15;;;;;;;;;;;;;;;;;;5132027;27;19911;-44
2023/05/11 12:33:41;;;;;;;;;;;;;;;;;;5131484;27;20385;-44
2023/05/11 12:36:08;;;;;;;;;;;;;;;;;;5131527;27;19907;-45
2023/05/11 12:38:34;;;;;;;;;;;;;;;;;;5130910;27;20359;-47
2023/05/11 12:40:59;;;;;;;;;;;;;;;;;;5131446;27;19908;-46
2023/05/11 12:43:25;;;;;;;;;;;;;;;;;;5131184;27;19908;-47
2023/05/11 12:45:51;;;;;;;;;;;;;;;;;;5131448;27;19994;-45
2023/05/11 12:48:17;;;;;;;;;;;;;;;;;;5129534;27;19915;-48
2023/05/11 12:50:43;;;;;;;;;;;;;;;;;;5129707;27;19912;-49
2023/05/11 12:53:10;;;;;;;;;;;;;;;;;;5130208;27;19938;-47
2023/05/11 12:55:36;;;;;;;;;;;;;;;;;;5131101;27;20288;-48
2023/05/11 12:58:03;;;;;;;;;;;;;;;;;;5127167;27;19923;-50
2023/05/11 13:00:28;;;;;;;;;;;;;;;;;;5119989;27;19915;-50
2023/05/11 13:02:55;;;;;;;;;;;;;;;;;;5131275;27;19933;-49
2023/05/11 13:05:20;;;;;;;;;;;;;;;;;;5129059;27;19914;-46
2023/05/11 13:07:47;;;;;;;;;;;;;;;;;;5123824;27;20336;-49
2023/05/11 13:10:13;;;;;;;;;;;;;;;;;;5108403;27;19919;-48
2023/05/11 13:12:39;;;;;;;;;;;;;;;;;;5108445;27;19969;-46
2023/05/11 13:15:05;;;;;;;;;;;;;;;;;;5093417;27;20245;-46
2023/05/11 13:17:31;;;;;;;;;;;;;;;;;;5127569;27;19961;-49
2023/05/11 13:19:57;;;;;;;;;;;;;;;;;;5130472;27;19972;-50
2023/05/11 13:22:23;;;;;;;;;;;;;;;;;;5119370;27;19916;-47
2023/05/11 13:24:49;;;;;;;;;;;;;;;;;;5127599;27;19915;-47
2023/05/11 13:27:15;;;;;;;;;;;;;;;;;;5128712;27;20381;-46
2023/05/11 13:29:42;;;;;;;;;;;;;;;;;;5129122;27;19908;-50
2023/05/11 13:32:08;;;;;;;;;;;;;;;;;;5128884;27;20211;-49
2023/05/11 13:34:36;;;;;;;;;;;;;;;;;;5129451;27;19916;-46
2023/05/11 13:37:01;;;;;;;;;;;;;;;;;;5128789;27;19911;-49
2023/05/11 13:39:27;;;;;;;;;;;;;;;;;;5128217;27;20382;-50
2023/05/11 13:41:53;;;;;;;;;;;;;;;;;;5128359;27;19903;-49
2023/05/11 13:44:19;;;;;;;;;;;;;;;;;;5128464;27;19946;-49
2023/05/11 13:46:45;;;;;;;;;;;;;;;;;;5128220;27;19910;-49
2023/05/11 13:49:11;;;;;;;;;;;;;;;;;;5128646;27;19908;-47
2023/05/11 13:51:38;;;;;;;;;;;;;;;;;;5128430;27;20008;-46
2023/05/11 13:54:04;;;;;;;;;;;;;;;;;;5128906;27;19913;-49
2023/05/11 13:56:30;;;;;;;;;;;;;;;;;;5128389;27;20402;-45
2023/05/11 13:58:56;;;;;;;;;;;;;;;;;;5127888;27;20014;-48
2023/05/11 14:01:23;;;;;;;;;;;;;;;;;;5128197;27;19908;-47
2023/05/11 14:03:49;;;;;;;;;;;;;;;;;;5127684;27;20370;-47
2023/05/11 14:06:15;;;;;;;;;;;;;;;;;;5128135;27;20002;-46
2023/05/11 14:08:44;;;;;;;;;;;;;;;;;;5127620;27;20409;-49
2023/05/11 14:11:10;;;;;;;;;;;;;;;;;;5127873;27;20061;-46
2023/05/11 14:13:37;;;;;;;;;;;;;;;;;;5128349;27;19911;-46
2023/05/11 14:16:05;;;;;;;;;;;;;;;;;;5127754;27;20077;-45
2023/05/11 14:18:31;;;;;;;;;;;;;;;;;;5127372;27;20162;-47
2023/05/11 14:20:59;;;;;;;;;;;;;;;;;;5127857;27;19911;-46
2023/05/11 14:23:25;;;;;;;;;;;;;;;;;;5127007;27;20373;-48
2023/05/11 14:25:51;;;;;;;;;;;;;;;;;;5127452;27;20350;-46
2023/05/11 14:28:17;;;;;;;;;;;;;;;;;;5127422;27;19908;-45
2023/05/11 14:30:43;;;;;;;;;;;;;;;;;;5127804;27;19942;-46
2023/05/11 14:33:09;;;;;;;;;;;;;;;;;;5127015;27;20009;-48
2023/05/11 14:35:35;;;;;;;;;;;;;;;;;;5128148;27;19921;-44
2023/05/11 14:38:01;;;;;;;;;;;;;;;;;;5126830;27;20418;-46
2023/05/11 14:40:27;;;;;;;;;;;;;;;;;;5127467;27;20309;-48
2023/05/11 14:42:54;;;;;;;;;;;;;;;;;;5127211;27;19907;-48
2023/05/11 14:45:20;;;;;;;;;;;;;;;;;;5108855;27;20430;-49
2023/05/11 14:47:46;;;;;;;;;;;;;;;;;;5127208;27;20010;-46
2023/05/11 14:50:12;;;;;;;;;;;;;;;;;;5127090;27;19911;-48
2023/05/11 14:52:38;;;;;;;;;;;;;;;;;;5127111;27;19907;-47
2023/05/11 14:55:04;;;;;;;;;;;;;;;;;;5127719;27;19908;-45
2023/05/11 14:57:31;;;;;;;;;;;;;;;;;;5127189;27;20014;-46
2023/05/11 14:59:57;;;;;;;;;;;;;;;;;;5126800;27;19912;-45
2023/05/11 15:02:23;;;;;;;;;;;;;;;;;;5121207;27;19912;-47
2023/05/11 15:04:49;;;;;;;;;;;;;;;;;;5107361;28;20045;-45
2023/05/11 15:07:15;;;;;;;;;;;;;;;;;;5106026;28;20306;-45
2023/05/11 15:09:41;;;;;;;;;;;;;;;;;;5106162;28;19919;-45
2023/05/11 15:12:08;;;;;;;;;;;;;;;;;;5106372;28;20378;-47
2023/05/11 15:14:33;;;;;;;;;;;;;;;;;;5106264;28;20367;-46
2023/05/11 15:16:59;;;;;;;;;;;;;;;;;;5104731;28;19916;-45
2023/05/11 15:19:25;;;;;;;;;;;;;;;;;;5106205;28;19912;-45
2023/05/11 15:21:51;;;;;;;;;;;;;;;;;;5105948;28;19991;-47
2023/05/11 15:24:17;;;;;;;;;;;;;;;;;;5106686;28;20420;-49
2023/05/11 15:26:43;;;;;;;;;;;;;;;;;;5105918;28;19908;-46
2023/05/11 15:29:09;;;;;;;;;;;;;;;;;;5123914;28;20397;-46
2023/05/11 15:31:35;;;;;;;;;;;;;;;;;;5114957;28;19963;-49
2023/05/11 15:34:01;;;;;;;;;;;;;;;;;;5111170;28;19916;-49
2023/05/11 15:36:29;;;;;;;;;;;;;;;;;;5110940;28;19911;-47
2023/05/11 15:38:55;;;;;;;;;;;;;;;;;;5111414;28;20148;-45
2023/05/11 15:41:21;;;;;;;;;;;;;;;;;;5119177;27;20006;-46
2023/05/11 15:43:47;;;;;;;;;;;;;;;;;;5131718;27;19915;-46
2023/05/11 15:46:13;;;;;;;;;;;;;;;;;;5131957;27;19911;-45
2023/05/11 15:48:39;;;;;;;;;;;;;;;;;;5131830;27;19907;-46
2023/05/11 15:51:05;;;;;;;;;;;;;;;;;;5133640;27;19979;-47
2023/05/11 15:53:31;;;;;;;;;;;;;;;;;;5137073;27;19917;-48
2023/05/11 15:55:57;;;;;;;;;;;;;;;;;;5132091;27;19908;-46
2023/05/11 15:58:23;;;;;;;;;;;;;;;;;;5131936;27;19912;-47
2023/05/11 16:00:49;;;;;;;;;;;;;;;;;;5131208;27;20409;-47
2023/05/11 16:03:15;;;;;;;;;;;;;;;;;;5132636;27;19915;-46
2023/05/11 16:05:41;;;;;;;;;;;;;;;;;;5132143;27;19964;-46
2023/05/11 16:08:07;;;;;;;;;;;;;;;;;;5131616;27;19951;-48
2023/05/11 16:10:33;;;;;;;;;;;;;;;;;;5130725;27;20043;-45
2023/05/11 16:12:59;;;;;;;;;;;;;;;;;;5122815;27;19994;-44
2023/05/11 16:15:25;;;;;;;;;;;;;;;;;;5118974;27;19911;-47
2023/05/11 16:17:51;;;;;;;;;;;;;;;;;;5130277;27;20010;-47
2023/05/11 16:20:18;;;;;;;;;;;;;;;;;;5127349;27;19916;-45
2023/05/11 16:22:44;;;;;;;;;;;;;;;;;;5128793;27;19979;-47
2023/05/11 16:25:09;;;;;;;;;;;;;;;;;;5129222;27;19999;-46
2023/05/11 16:27:35;;;;;;;;;;;;;;;;;;5124475;27;20351;-47
2023/05/11 16:30:02;;;;;;;;;;;;;;;;;;5108190;28;19912;-48
2023/05/11 16:32:28;;;;;;;;;;;;;;;;;;5121213;27;19949;-47
2023/05/11 16:34:54;;;;;;;;;;;;;;;;;;5123947;27;19955;-47
2023/05/11 16:37:19;;;;;;;;;;;;;;;;;;5128077;27;20480;-48
2023/05/11 16:39:46;;;;;;;;;;;;;;;;;;5132524;27;19915;-46
2023/05/11 16:42:12;;;;;;;;;;;;;;;;;;5130926;27;19960;-47
2023/05/11 16:44:38;;;;;;;;;;;;;;;;;;5148792;27;19911;-49
2023/05/11 16:47:04;;;;;;;;;;;;;;;;;;5135122;27;20112;-46
2023/05/11 16:49:30;;;;;;;;;;;;;;;;;;5128105;27;19911;-45
2023/05/11 16:51:56;;;;;;;;;;;;;;;;;;5128102;27;19926;-45
2023/05/11 16:54:22;;;;;;;;;;;;;;;;;;5130960;27;19907;-45
2023/05/11 16:56:48;;;;;;;;;;;;;;;;;;5148987;27;20006;-47
2023/05/11 16:59:14;;;;;;;;;;;;;;;;;;5148862;27;19918;-47
2023/05/11 17:01:40;;;;;;;;;;;;;;;;;;5109777;27;19920;-45
2023/05/11 17:04:06;;;;;;;;;;;;;;;;;;5129011;27;20365;-47
2023/05/11 17:06:33;;;;;;;;;;;;;;;;;;5123817;27;19911;-48
2023/05/11 17:08:59;;;;;;;;;;;;;;;;;;5128332;27;20414;-45
2023/05/11 17:11:25;;;;;;;;;;;;;;;;;;5126288;27;19998;-45
2023/05/11 17:13:51;;;;;;;;;;;;;;;;;;5127539;27;19919;-45
2023/05/11 17:16:17;;;;;;;;;;;;;;;;;;5128094;27;19969;-48
2023/05/11 17:18:42;;;;;;;;;;;;;;;;;;5127391;27;20410;-46
2023/05/11 17:21:09;;;;;;;;;;;;;;;;;;5112035;27;19911;-48
2023/05/11 17:23:35;;;;;;;;;;;;;;;;;;5107424;28;19922;-44
2023/05/11 17:26:01;;;;;;;;;;;;;;;;;;5107743;28;19915;-46
2023/05/11 17:28:27;;;;;;;;;;;;;;;;;;5106870;28;19999;-48
2023/05/11 17:30:53;;;;;;;;;;;;;;;;;;5108039;27;20396;-47
2023/05/11 17:33:18;;;;;;;;;;;;;;;;;;5107066;28;19916;-47
2023/05/11 17:35:44;;;;;;;;;;;;;;;;;;5106508;28;19918;-45
2023/05/11 17:38:10;;;;;;;;;;;;;;;;;;5107060;27;20433;-45
2023/05/11 17:40:36;;;;;;;;;;;;;;;;;;5107817;27;19918;-49
2023/05/11 17:43:02;;;;;;;;;;;;;;;;;;5127968;27;20029;-45
2023/05/11 17:45:28;;;;;;;;;;;;;;;;;;5126366;27;20161;-48
2023/05/11 17:47:56;;;;;;;;;;;;;;;;;;5127004;27;19934;-44
2023/05/11 17:50:22;;;;;;;;;;;;;;;;;;5126113;27;19915;-48
2023/05/11 17:52:48;;;;;;;;;;;;;;;;;;5108284;27;20286;-48
2023/05/11 17:55:14;;;;;;;;;;;;;;;;;;5125514;27;19918;-45
2023/05/11 17:57:41;;;;;;;;;;;;;;;;;;5109285;27;20024;-48
2023/05/11 18:00:09;;;;;;;;;;;;;;;;;;5106349;28;19972;-45
2023/05/11 18:02:35;;;;;;;;;;;;;;;;;;5106271;28;20434;-46
2023/05/11 18:05:01;;;;;;;;;;;;;;;;;;5107293;28;19964;-48
2023/05/11 18:07:27;;;;;;;;;;;;;;;;;;5119248;27;20309;-49
2023/05/11 18:09:53;;;;;;;;;;;;;;;;;;5126449;27;19920;-48
2023/05/11 18:12:19;;;;;;;;;;;;;;;;;;5126596;27;20297;-47
2023/05/11 18:14:45;;;;;;;;;;;;;;;;;;5126528;27;20043;-47
2023/05/11 18:17:11;;;;;;;;;;;;;;;;;;5125593;27;20429;-47
2023/05/11 18:19:37;;;;;;;;;;;;;;;;;;5123816;27;19922;-48
2023/05/11 18:22:03;;;;;;;;;;;;;;;;;;5127650;27;19915;-46
2023/05/11 18:24:29;;;;;;;;;;;;;;;;;;5107078;27;19911;-47
2023/05/11 18:26:55;;;;;;;;;;;;;;;;;;5125683;27;19918;-48
2023/05/11 18:29:21;;;;;;;;;;;;;;;;;;5119279;27;19917;-45
2023/05/11 18:31:48;;;;;;;;;;;;;;;;;;5123594;27;20397;-46
2023/05/11 18:34:14;;;;;;;;;;;;;;;;;;5125502;27;19912;-45
2023/05/11 18:36:41;;;;;;;;;;;;;;;;;;5104996;28;20282;-48
2023/05/11 18:39:08;;;;;;;;;;;;;;;;;;5105714;28;19965;-45
2023/05/11 18:41:35;;;;;;;;;;;;;;;;;;5117089;27;19917;-44
2023/05/11 18:44:01;;;;;;;;;;;;;;;;;;5126747;27;19992;-44
2023/05/11 18:46:27;;;;;;;;;;;;;;;;;;5126070;27;20128;-47
2023/05/11 18:48:54;;;;;;;;;;;;;;;;;;5107198;27;19918;-47
2023/05/11 18:51:21;;;;;;;;;;;;;;;;;;5125650;27;19919;-47
2023/05/11 18:53:47;;;;;;;;;;;;;;;;;;5123354;27;19912;-47
2023/05/11 18:56:13;;;;;;;;;;;;;;;;;;5116765;27;19912;-48
2023/05/11 18:58:39;;;;;;;;;;;;;;;;;;5125594;27;20375;-45
2023/05/11 19:01:06;;;;;;;;;;;;;;;;;;5106673;27;19919;-44
2023/05/11 19:03:32;;;;;;;;;;;;;;;;;;5127185;27;19956;-46
2023/05/11 19:06:00;;;;;;;;;;;;;;;;;;5112545;27;19912;-48
2023/05/11 19:08:27;;;;;;;;;;;;;;;;;;5105126;28;19964;-44
2023/05/11 19:10:53;;;;;;;;;;;;;;;;;;5105976;27;19916;-47
2023/05/11 19:13:20;;;;;;;;;;;;;;;;;;5125943;27;19964;-44
2023/05/11 19:15:46;;;;;;;;;;;;;;;;;;5125537;27;19907;-47
2023/05/11 19:18:12;;;;;;;;;;;;;;;;;;5124496;27;19916;-45
2023/05/11 19:20:37;;;;;;;;;;;;;;;;;;5125170;27;19916;-47
2023/05/11 19:23:03;;;;;;;;;;;;;;;;;;5126591;27;19919;-47
2023/05/11 19:25:29;;;;;;;;;;;;;;;;;;5114272;28;19995;-44
2023/05/11 19:27:58;;;;;;;;;;;;;;;;;;5104895;28;19966;-48
2023/05/11 19:30:24;;;;;;;;;;;;;;;;;;5105509;28;20022;-46
2023/05/11 19:32:50;;;;;;;;;;;;;;;;;;5104678;28;20002;-44
2023/05/11 19:35:17;;;;;;;;;;;;;;;;;;5113019;28;19908;-45
2023/05/11 19:37:46;;;;;;;;;;;;;;;;;;5124179;28;19955;-47
2023/05/11 19:40:15;;;;;;;;;;;;;;;;;;5125384;28;19911;-44
2023/05/11 19:42:41;;;;;;;;;;;;;;;;;;5125236;28;19968;-45
2023/05/11 19:45:10;;;;;;;;;;;;;;;;;;5125633;28;19919;-45
2023/05/11 19:47:37;;;;;;;;;;;;;;;;;;5112318;28;19943;-47
2023/05/11 19:50:04;;;;;;;;;;;;;;;;;;5087105;28;19908;-45
2023/05/11 19:52:30;;;;;;;;;;;;;;;;;;5105362;28;20227;-44
2023/05/11 19:54:56;;;;;;;;;;;;;;;;;;5098456;28;19915;-45
2023/05/11 19:57:25;;;;;;;;;;;;;;;;;;5122270;28;19919;-45
2023/05/11 19:59:51;;;;;;;;;;;;;;;;;;5125145;28;19907;-46
2023/05/11 20:02:17;;;;;;;;;;;;;;;;;;5121651;28;19918;-46
2023/05/11 20:04:44;;;;;;;;;;;;;;;;;;5104252;28;19923;-45
2023/05/11 20:07:11;;;;;;;;;;;;;;;;;;5120560;28;20026;-46
2023/05/11 20:09:37;;;;;;;;;;;;;;;;;;5104192;28;20473;-46
2023/05/11 20:12:03;;;;;;;;;;;;;;;;;;5105211;28;19922;-46
2023/05/11 20:14:28;;;;;;;;;;;;;;;;;;5104577;28;19907;-45
2023/05/11 20:16:54;;;;;;;;;;;;;;;;;;5104192;28;19928;-46
2023/05/11 20:19:20;;;;;;;;;;;;;;;;;;5120395;28;19995;-45
2023/05/11 20:21:46;;;;;;;;;;;;;;;;;;5111756;27;20024;-44
2023/05/11 20:24:13;;;;;;;;;;;;;;;;;;5125989;27;19918;-46
2023/05/11 20:26:40;;;;;;;;;;;;;;;;;;5089995;28;19911;-46
2023/05/11 20:29:08;;;;;;;;;;;;;;;;;;5108413;28;19994;-44
2023/05/11 20:31:35;;;;;;;;;;;;;;;;;;5113124;27;20501;-46
2023/05/11 20:34:02;;;;;;;;;;;;;;;;;;5128906;27;20386;-44
2023/05/11 20:36:28;;;;;;;;;;;;;;;;;;5128849;27;19907;-45
2023/05/11 20:38:53;;;;;;;;;;;;;;;;;;5128374;27;20506;-44
2023/05/11 20:41:20;;;;;;;;;;;;;;;;;;5127680;27;19953;-45
2023/05/11 20:43:47;;;;;;;;;;;;;;;;;;5128266;27;19908;-44
2023/05/11 20:46:14;;;;;;;;;;;;;;;;;;5128538;27;19911;-45
2023/05/11 20:48:40;;;;;;;;;;;;;;;;;;5128384;27;19907;-46
2023/05/11 20:51:06;;;;;;;;;;;;;;;;;;5115189;27;19912;-45
2023/05/11 20:53:32;;;;;;;;;;;;;;;;;;5126966;27;20386;-45
2023/05/11 20:55:58;;;;;;;;;;;;;;;;;;5128442;27;19915;-45
2023/05/11 20:58:24;;;;;;;;;;;;;;;;;;5128467;27;20104;-45
2023/05/11 21:00:50;;;;;;;;;;;;;;;;;;5127802;27;20269;-44
2023/05/11 21:03:16;;;;;;;;;;;;;;;;;;5127599;27;19934;-46
2023/05/11 21:05:42;;;;;;;;;;;;;;;;;;5128457;27;19912;-45
2023/05/11 21:08:08;;;;;;;;;;;;;;;;;;5129376;27;19911;-45
2023/05/11 21:10:34;;;;;;;;;;;;;;;;;;5128981;27;19922;-45
2023/05/11 21:13:00;;;;;;;;;;;;;;;;;;5128656;27;20000;-44
2023/05/11 21:15:26;;;;;;;;;;;;;;;;;;5129526;27;19908;-45
2023/05/11 21:17:52;;;;;;;;;;;;;;;;;;5129269;27;19983;-45
2023/05/11 21:20:19;;;;;;;;;;;;;;;;;;5128251;27;20013;-47
2023/05/11 21:22:46;;;;;;;;;;;;;;;;;;5128320;27;19912;-45
2023/05/11 21:25:12;;;;;;;;;;;;;;;;;;5129589;27;20331;-44
2023/05/11 21:27:38;;;;;;;;;;;;;;;;;;5126480;27;19919;-47
2023/05/11 21:30:04;;;;;;;;;;;;;;;;;;5122784;27;19919;-47
2023/05/11 21:32:30;;;;;;;;;;;;;;;;;;5128406;27;19912;-44
2023/05/11 21:34:56;;;;;;;;;;;;;;;;;;5111776;27;19968;-44
2023/05/11 21:37:22;;;;;;;;;;;;;;;;;;5110881;27;19912;-48
2023/05/11 21:39:49;;;;;;;;;;;;;;;;;;5128581;27;19922;-44
2023/05/11 21:42:15;;;;;;;;;;;;;;;;;;5129008;27;19908;-45